Dallas, Texas
Traffic Map
Current Weather Conditions
Dallas, Texas
Broken Clouds
Broken Clouds
63°
Feels Like: 63°
Wind Chill: 63° Ceiling: 30000
Heat Index: 63° Visibility: 10mi
Dew Point: 51° Wind: 8mph
Humidity: 65% Direction: 180° (S)
Pressure: 30.11in Gusts: 0mph
Raw Report DataKDAL 190953Z 18007KT 10SM FEW210 BKN300 17/11 A3011 RMK AO2 SLP192 T01720106
Traffic Incident Summary
Active as of:
Severity:
Category:
InformationThere was an issue retrieving the traffic information for this location. Please try a different location or try again shortly.
Advertisements